createdAt,value
2022-07-30T00:04:31.332Z,3.35
2022-07-30T00:07:16.372Z,3.00
2022-07-30T00:13:14.187Z,2.38
2022-07-30T00:15:42.273Z,2.20
2022-07-30T00:18:09.990Z,1.70
2022-07-30T00:20:43.643Z,1.85
2022-07-30T00:23:14.094Z,3.45
2022-07-30T00:25:42.411Z,2.70
2022-07-30T00:28:11.657Z,1.60
2022-07-30T00:30:41.804Z,1.67
2022-07-30T00:33:10.882Z,2.45
2022-07-30T00:35:39.831Z,1.73
2022-07-30T00:38:10.569Z,3.00
2022-07-30T00:40:38.606Z,2.03
2022-07-30T00:43:10.349Z,1.52
2022-07-30T00:45:40.035Z,1.90
2022-07-30T00:48:08.325Z,1.80
2022-07-30T00:50:38.879Z,1.88
2022-07-30T00:57:18.750Z,2.50
2022-07-30T00:59:46.942Z,2.05
2022-07-30T01:02:19.031Z,1.85
2022-07-30T01:04:47.289Z,2.20
2022-07-30T01:07:18.410Z,2.60
2022-07-30T01:09:58.711Z,1.98
2022-07-30T01:15:55.877Z,1.60
2022-07-30T01:18:49.024Z,1.80
2022-07-30T01:21:18.771Z,1.83
2022-07-30T01:23:49.405Z,1.80
2022-07-30T01:26:21.853Z,2.28
2022-07-30T01:28:55.839Z,2.47
2022-07-30T01:31:26.562Z,2.22
2022-07-30T01:33:58.312Z,2.20
2022-07-30T01:37:20.749Z,3.63
2022-07-30T01:39:53.516Z,1.83
2022-07-30T01:42:30.140Z,2.20
2022-07-30T01:44:59.784Z,2.50
2022-07-30T01:47:31.004Z,2.90
2022-07-30T01:50:48.959Z,1.98
2022-07-30T01:53:19.174Z,1.88
2022-07-30T01:55:49.425Z,1.80
2022-07-30T01:58:21.721Z,1.70
2022-07-30T02:00:51.086Z,1.80
2022-07-30T02:03:19.323Z,1.80
2022-07-30T02:06:03.100Z,2.58
2022-07-30T02:08:39.441Z,2.45
2022-07-30T02:11:10.298Z,2.53
2022-07-30T02:13:46.566Z,2.75
2022-07-30T02:16:22.143Z,2.60
2022-07-30T02:19:04.354Z,1.80
2022-07-30T02:21:50.448Z,2.60
2022-07-30T02:24:23.317Z,2.30
2022-07-30T02:26:56.554Z,2.30
2022-07-30T02:29:29.370Z,2.78
2022-07-30T02:31:59.227Z,2.08
2022-07-30T02:34:29.416Z,2.08
2022-07-30T02:37:03.792Z,2.38
2022-07-30T02:39:34.820Z,2.50
2022-07-30T02:42:05.247Z,3.83
2022-07-30T02:44:39.843Z,2.20
2022-07-30T02:47:11.906Z,3.05
2022-07-30T02:49:41.166Z,2.38
2022-07-30T02:52:12.306Z,2.45
2022-07-30T02:54:42.792Z,2.60
2022-07-30T02:57:11.909Z,2.95
2022-07-30T02:59:44.904Z,2.40
2022-07-30T03:02:15.194Z,2.70
2022-07-30T03:04:44.473Z,2.90
2022-07-30T03:07:17.824Z,2.60
2022-07-30T03:09:52.089Z,3.25
2022-07-30T03:12:21.123Z,3.30
2022-07-30T03:14:51.964Z,2.75
2022-07-30T03:17:23.911Z,3.55
2022-07-30T03:19:54.127Z,2.72
2022-07-30T03:22:24.945Z,2.65
2022-07-30T03:24:55.698Z,3.08
2022-07-30T03:27:25.648Z,2.80
2022-07-30T03:29:56.731Z,3.35
2022-07-30T03:32:26.265Z,3.00
2022-07-30T03:34:56.123Z,2.50
2022-07-30T03:37:26.118Z,3.88
2022-07-30T03:39:55.650Z,3.45
2022-07-30T03:42:24.324Z,3.33
2022-07-30T03:44:53.248Z,3.15
2022-07-30T03:47:24.321Z,2.92
2022-07-30T03:49:52.468Z,2.42
2022-07-30T03:52:20.921Z,2.95
2022-07-30T03:54:48.997Z,5.10
2022-07-30T03:57:20.240Z,5.90
2022-07-30T03:59:48.594Z,3.00
2022-07-30T04:02:16.268Z,3.17
2022-07-30T04:04:45.470Z,3.33
2022-07-30T04:07:13.264Z,2.85
2022-07-30T04:09:40.989Z,2.78
2022-07-30T04:12:09.116Z,3.13
2022-07-30T04:14:41.943Z,3.00
2022-07-30T04:17:14.194Z,3.35
2022-07-30T04:19:49.093Z,3.40
2022-07-30T04:22:19.622Z,3.20
2022-07-30T04:24:48.401Z,4.25
2022-07-30T04:27:17.977Z,3.08
2022-07-30T04:29:45.868Z,4.28
2022-07-30T04:32:14.158Z,3.20
2022-07-30T04:34:48.961Z,3.10
2022-07-30T04:37:17.520Z,3.22
2022-07-30T04:39:45.685Z,3.15
2022-07-30T04:42:15.091Z,4.15
2022-07-30T04:44:44.929Z,2.90
2022-07-30T04:47:12.931Z,3.00
2022-07-30T04:49:44.128Z,3.70
2022-07-30T04:52:15.759Z,5.10
2022-07-30T04:54:45.625Z,3.30
2022-07-30T04:57:14.812Z,3.30
2022-07-30T04:59:42.611Z,4.30
2022-07-30T05:02:12.245Z,3.30
2022-07-30T05:04:41.658Z,2.83
2022-07-30T05:07:10.026Z,3.42
2022-07-30T05:09:39.310Z,3.50
2022-07-30T05:12:10.807Z,3.25
2022-07-30T05:14:38.764Z,3.67
2022-07-30T05:17:06.701Z,4.00
2022-07-30T05:19:34.605Z,3.72
2022-07-30T05:22:06.433Z,4.03
2022-07-30T05:24:34.652Z,3.17
2022-07-30T05:27:03.992Z,3.35
2022-07-30T05:29:31.871Z,3.80
2022-07-30T05:32:03.379Z,3.30
2022-07-30T05:34:31.381Z,3.35
2022-07-30T05:36:59.173Z,3.80
2022-07-30T05:39:27.737Z,3.15
2022-07-30T05:41:55.780Z,3.70
2022-07-30T05:44:26.933Z,4.15
2022-07-30T05:46:54.886Z,3.47
2022-07-30T05:49:22.733Z,3.63
2022-07-30T05:51:50.587Z,3.35
2022-07-30T05:54:18.347Z,3.50
2022-07-30T05:56:46.359Z,4.28
2022-07-30T05:59:16.755Z,3.85
2022-07-30T06:01:49.201Z,5.40
2022-07-30T06:04:17.165Z,4.20
2022-07-30T06:06:44.967Z,3.65
2022-07-30T06:09:12.742Z,4.60
2022-07-30T06:11:40.468Z,4.18
2022-07-30T06:14:08.236Z,7.07
2022-07-30T06:16:35.972Z,6.40
2022-07-30T06:20:02.247Z,3.88
2022-07-30T06:22:39.980Z,3.92
2022-07-30T06:25:09.327Z,3.90
2022-07-30T06:27:39.743Z,5.68
2022-07-30T06:30:10.106Z,4.22
2022-07-30T06:32:37.780Z,4.10
2022-07-30T06:35:06.026Z,4.25
2022-07-30T06:38:04.928Z,5.47
2022-07-30T06:40:23.599Z,4.15
2022-07-30T06:42:51.335Z,5.95
2022-07-30T06:45:19.184Z,4.70
2022-07-30T06:48:14.308Z,5.05
2022-07-30T06:50:42.526Z,4.82
2022-07-30T06:53:22.319Z,4.78
2022-07-30T06:59:21.458Z,6.75
2022-07-30T07:01:49.513Z,5.10
2022-07-30T07:04:24.738Z,5.93
2022-07-30T07:06:59.876Z,5.35
2022-07-30T07:09:40.064Z,6.95
2022-07-30T07:12:13.974Z,5.80
2022-07-30T07:14:42.055Z,5.47
2022-07-30T07:17:10.131Z,5.78
2022-07-30T07:20:01.493Z,5.88
2022-07-30T07:22:25.664Z,6.10
2022-07-30T07:24:53.368Z,6.32
2022-07-30T07:27:22.528Z,6.20
2022-07-30T07:30:38.536Z,6.05
2022-07-30T07:48:44.300Z,8.18
2022-07-30T07:58:35.099Z,6.75
2022-07-30T08:01:07.014Z,7.32
2022-07-30T08:03:36.677Z,7.53
2022-07-30T08:06:06.854Z,8.02
2022-07-30T08:08:37.153Z,6.75
2022-07-30T08:11:06.258Z,6.50
2022-07-30T08:13:51.520Z,6.90
2022-07-30T08:16:20.602Z,6.30
2022-07-30T08:18:48.415Z,8.70
2022-07-30T08:21:17.534Z,5.85
2022-07-30T08:23:45.336Z,6.53
2022-07-30T08:26:13.114Z,6.72
2022-07-30T08:28:41.353Z,6.22
2022-07-30T08:31:09.081Z,7.05
2022-07-30T08:33:36.769Z,6.28
2022-07-30T08:36:09.732Z,7.28
2022-07-30T08:38:39.997Z,6.38
2022-07-30T08:41:08.101Z,5.82
2022-07-30T08:43:37.571Z,8.02
2022-07-30T08:46:13.669Z,5.35
2022-07-30T08:48:43.354Z,6.25
2022-07-30T08:51:11.748Z,6.38
2022-07-30T08:53:42.697Z,5.40
2022-07-30T08:56:10.579Z,6.00
2022-07-30T08:58:38.309Z,5.68
2022-07-30T09:01:07.146Z,5.07
2022-07-30T09:03:35.887Z,5.20
2022-07-30T09:06:12.626Z,4.95
2022-07-30T09:08:41.840Z,5.07
2022-07-30T09:11:09.690Z,6.60
2022-07-30T09:13:39.522Z,4.90
2022-07-30T09:16:07.983Z,4.88
2022-07-30T09:18:38.973Z,7.80
2022-07-30T09:21:17.067Z,6.60
2022-07-30T09:23:58.971Z,4.43
2022-07-30T09:26:26.763Z,4.57
2022-07-30T09:28:54.624Z,4.50
2022-07-30T09:31:23.562Z,4.55
2022-07-30T09:33:51.637Z,5.30
2022-07-30T09:36:19.670Z,4.82
2022-07-30T09:38:49.437Z,4.70
2022-07-30T09:41:37.806Z,4.68
2022-07-30T09:44:07.351Z,4.53
2022-07-30T09:46:47.430Z,4.38
2022-07-30T09:49:16.894Z,4.03
2022-07-30T09:52:00.077Z,4.55
2022-07-30T09:54:51.659Z,4.88
2022-07-30T09:57:25.972Z,4.15
2022-07-30T09:59:56.643Z,4.82
2022-07-30T10:02:32.323Z,4.00
2022-07-30T10:05:14.523Z,4.43
2022-07-30T10:07:51.124Z,4.28
2022-07-30T10:10:21.845Z,4.35
2022-07-30T10:12:58.151Z,4.50
2022-07-30T10:15:32.559Z,4.28
2022-07-30T10:18:01.865Z,3.95
2022-07-30T10:20:29.644Z,5.53
2022-07-30T10:23:00.067Z,3.70
2022-07-30T10:25:28.441Z,4.88
2022-07-30T10:27:58.052Z,3.25
2022-07-30T10:30:28.177Z,5.43
2022-07-30T10:32:58.043Z,2.90
2022-07-30T10:35:35.055Z,3.60
2022-07-30T10:38:13.452Z,3.22
2022-07-30T10:40:48.706Z,2.90
2022-07-30T10:43:46.462Z,3.22
2022-07-30T10:46:23.782Z,2.80
2022-07-30T10:48:51.699Z,2.88
2022-07-30T10:51:25.506Z,2.72
2022-07-30T10:54:02.540Z,2.97
2022-07-30T10:56:30.403Z,5.63
2022-07-30T10:59:04.687Z,2.80
2022-07-30T11:02:10.319Z,2.58
2022-07-30T11:04:37.928Z,2.95
2022-07-30T11:07:31.446Z,4.03
2022-07-30T11:10:08.749Z,2.92
2022-07-30T11:12:55.014Z,4.00
2022-07-30T11:15:24.472Z,3.97
2022-07-30T11:18:01.049Z,4.55
2022-07-30T11:20:29.175Z,3.03
2022-07-30T11:23:10.262Z,2.72
2022-07-30T11:25:50.652Z,4.28
2022-07-30T11:28:41.374Z,3.47
2022-07-30T11:31:54.713Z,3.15
2022-07-30T11:34:28.234Z,3.08
2022-07-30T11:37:19.246Z,2.95
2022-07-30T11:40:10.846Z,2.90
2022-07-30T11:42:40.331Z,3.08
2022-07-30T11:45:26.945Z,3.33
2022-07-30T11:48:00.225Z,3.97
2022-07-30T11:50:30.334Z,3.13
2022-07-30T11:53:01.097Z,2.92
2022-07-30T11:55:31.294Z,3.10
2022-07-30T11:58:00.442Z,4.40
2022-07-30T12:00:35.337Z,7.13
2022-07-30T12:03:11.441Z,3.85
2022-07-30T12:05:39.978Z,2.80
2022-07-30T12:08:07.867Z,3.33
2022-07-30T12:10:39.035Z,4.22
2022-07-30T12:13:12.702Z,2.60
2022-07-30T12:15:43.143Z,2.40
2022-07-30T12:18:28.976Z,3.20
2022-07-30T12:21:01.539Z,5.53
2022-07-30T12:23:30.947Z,2.00
2022-07-30T12:25:59.329Z,3.05
2022-07-30T12:28:28.855Z,2.55
2022-07-30T12:30:57.559Z,2.47
2022-07-30T12:33:27.421Z,3.03
2022-07-30T12:35:56.467Z,2.42
2022-07-30T12:38:25.713Z,2.70
2022-07-30T12:41:04.116Z,2.75
2022-07-30T12:43:46.355Z,2.30
2022-07-30T12:46:16.289Z,3.13
2022-07-30T12:49:21.634Z,2.40
2022-07-30T12:51:59.857Z,2.05
2022-07-30T12:54:28.954Z,2.30
2022-07-30T12:56:59.402Z,2.53
2022-07-30T12:59:28.130Z,2.42
2022-07-30T13:01:57.184Z,2.20
2022-07-30T13:04:26.552Z,3.63
2022-07-30T13:07:08.173Z,2.42
2022-07-30T13:09:36.963Z,5.05
2022-07-30T13:12:05.465Z,2.83
2022-07-30T13:14:33.616Z,2.80
2022-07-30T13:17:03.666Z,2.88
2022-07-30T13:19:33.372Z,2.58
2022-07-30T13:22:01.223Z,2.92
2022-07-30T13:24:28.936Z,3.03
2022-07-30T13:26:56.575Z,2.90
2022-07-30T13:29:24.320Z,3.05
2022-07-30T13:31:52.642Z,3.17
2022-07-30T13:34:20.318Z,2.78
2022-07-30T13:36:49.453Z,2.60
2022-07-30T13:39:17.126Z,3.30
2022-07-30T13:41:44.867Z,4.10
2022-07-30T13:44:12.596Z,2.38
2022-07-30T13:46:41.373Z,3.25
2022-07-30T13:49:09.330Z,3.08
2022-07-30T13:51:37.240Z,2.88
2022-07-30T13:54:07.316Z,2.78
2022-07-30T13:56:35.059Z,3.05
2022-07-30T13:59:08.755Z,2.50
2022-07-30T14:01:36.855Z,2.72
2022-07-30T14:04:05.848Z,2.65
2022-07-30T14:06:33.537Z,2.40
2022-07-30T14:09:01.177Z,3.08
2022-07-30T14:11:30.596Z,2.95
2022-07-30T14:13:58.324Z,2.95
2022-07-30T14:16:44.303Z,2.78
2022-07-30T14:19:23.370Z,3.13
2022-07-30T14:21:52.557Z,2.70
2022-07-30T14:24:20.568Z,4.70
2022-07-30T14:26:54.453Z,2.63
2022-07-30T14:29:26.109Z,3.53
2022-07-30T14:31:53.868Z,2.67
2022-07-30T14:34:21.676Z,2.40
2022-07-30T14:36:49.608Z,2.83
2022-07-30T14:39:17.253Z,2.85
2022-07-30T14:41:44.955Z,3.13
2022-07-30T14:44:13.984Z,3.00
2022-07-30T14:46:52.546Z,3.00
2022-07-30T14:49:20.871Z,2.85
2022-07-30T14:51:48.893Z,2.50
2022-07-30T14:54:16.935Z,2.47
2022-07-30T14:56:44.629Z,2.80
2022-07-30T14:59:13.848Z,2.80
2022-07-30T15:01:42.293Z,2.30
2022-07-30T15:04:11.485Z,2.50
2022-07-30T15:06:40.795Z,2.78
2022-07-30T15:09:08.943Z,3.67
2022-07-30T15:12:04.360Z,2.90
2022-07-30T15:14:26.971Z,2.75
2022-07-30T15:17:00.644Z,2.38
2022-07-30T15:19:31.542Z,2.50
2022-07-30T15:22:02.005Z,2.60
2022-07-30T15:24:30.511Z,2.85
2022-07-30T15:26:58.206Z,2.42
2022-07-30T15:29:29.337Z,2.40
2022-07-30T15:31:57.127Z,3.35
2022-07-30T15:34:24.763Z,2.45
2022-07-30T15:36:52.636Z,2.50
2022-07-30T15:39:20.305Z,3.45
2022-07-30T15:41:48.075Z,2.28
2022-07-30T15:44:20.105Z,2.58
2022-07-30T15:46:49.767Z,2.70
2022-07-30T15:49:17.847Z,2.53
2022-07-30T15:51:48.711Z,2.83
2022-07-30T15:54:22.529Z,2.17
2022-07-30T15:56:51.353Z,3.17
2022-07-30T15:59:19.394Z,2.45
2022-07-30T16:01:49.204Z,2.30
2022-07-30T16:04:19.291Z,2.40
2022-07-30T16:06:48.141Z,2.50
2022-07-30T16:09:15.954Z,2.40
2022-07-30T16:11:43.604Z,2.70
2022-07-30T16:14:11.610Z,2.63
2022-07-30T16:16:39.245Z,2.60
2022-07-30T16:19:08.608Z,2.95
2022-07-30T16:21:36.759Z,3.80
2022-07-30T16:24:05.186Z,2.22
2022-07-30T16:26:33.184Z,2.53
2022-07-30T16:29:00.834Z,2.97
2022-07-30T16:31:28.572Z,1.90
2022-07-30T16:33:56.293Z,3.35
2022-07-30T16:36:25.303Z,3.50
2022-07-30T16:38:52.974Z,2.88
2022-07-30T16:41:20.706Z,3.88
2022-07-30T16:43:48.398Z,2.72
2022-07-30T16:46:16.067Z,2.28
2022-07-30T16:48:47.436Z,3.10
2022-07-30T16:51:18.374Z,2.90
2022-07-30T16:53:48.540Z,2.97
2022-07-30T16:56:16.264Z,2.50
2022-07-30T16:58:43.990Z,2.30
2022-07-30T17:01:11.760Z,2.50
2022-07-30T17:03:39.557Z,2.65
2022-07-30T17:06:07.369Z,2.70
2022-07-30T17:08:35.308Z,3.88
2022-07-30T17:11:09.510Z,3.45
2022-07-30T17:13:40.289Z,3.10
2022-07-30T17:16:08.117Z,9.52
2022-07-30T17:18:35.886Z,3.80
2022-07-30T17:21:03.697Z,3.40
2022-07-30T17:23:31.420Z,4.05
2022-07-30T17:25:59.125Z,3.58
2022-07-30T17:28:28.228Z,3.58
2022-07-30T17:30:55.887Z,3.75
2022-07-30T17:33:23.719Z,4.13
2022-07-30T17:35:51.462Z,4.18
2022-07-30T17:38:19.702Z,4.47
2022-07-30T17:40:48.281Z,4.10
2022-07-30T17:43:16.031Z,3.05
2022-07-30T17:45:45.093Z,2.97
2022-07-30T17:48:12.971Z,2.50
2022-07-30T17:50:40.777Z,2.55
2022-07-30T17:53:08.465Z,2.92
2022-07-30T17:55:36.243Z,3.50
2022-07-30T17:58:04.783Z,2.85
2022-07-30T18:00:34.541Z,3.28
2022-07-30T18:03:03.841Z,4.45
2022-07-30T18:05:31.555Z,5.78
2022-07-30T18:07:59.207Z,4.95
2022-07-30T18:10:26.935Z,4.65
2022-07-30T18:12:54.679Z,4.55
2022-07-30T18:15:22.610Z,6.35
2022-07-30T18:17:50.393Z,4.53
2022-07-30T18:20:19.430Z,4.75
2022-07-30T18:22:47.486Z,5.05
2022-07-30T18:25:19.673Z,3.50
2022-07-30T18:27:47.557Z,3.10
2022-07-30T18:30:15.619Z,3.58
2022-07-30T18:32:43.319Z,3.20
2022-07-30T18:35:14.712Z,5.05
2022-07-30T18:37:44.810Z,3.33
2022-07-30T18:40:14.139Z,3.97
2022-07-30T18:42:41.852Z,3.80
2022-07-30T18:45:13.863Z,3.53
2022-07-30T18:47:41.920Z,3.95
2022-07-30T18:50:10.835Z,3.58
2022-07-30T18:52:38.713Z,3.80
2022-07-30T18:55:11.238Z,3.47
2022-07-30T18:57:39.213Z,3.17
2022-07-30T19:00:09.115Z,3.25
2022-07-30T19:02:37.930Z,3.85
2022-07-30T19:05:06.784Z,3.45
2022-07-30T19:07:57.206Z,3.38
2022-07-30T19:10:26.941Z,3.45
2022-07-30T19:12:55.189Z,3.55
2022-07-30T19:15:23.416Z,3.88
2022-07-30T19:17:51.788Z,3.83
2022-07-30T19:20:19.935Z,3.58
2022-07-30T19:22:47.800Z,4.78
2022-07-30T19:25:15.673Z,4.30
2022-07-30T19:27:44.630Z,3.80
2022-07-30T19:30:13.450Z,3.83
2022-07-30T19:32:41.221Z,4.13
2022-07-30T19:35:13.392Z,4.20
2022-07-30T19:37:41.432Z,3.80
2022-07-30T19:40:10.023Z,4.88
2022-07-30T19:42:41.256Z,3.90
2022-07-30T19:45:13.076Z,4.40
2022-07-30T19:47:42.620Z,4.63
2022-07-30T19:50:11.862Z,3.67
2022-07-30T19:52:39.971Z,4.05
2022-07-30T19:55:34.946Z,4.18
2022-07-30T19:58:04.675Z,4.68
2022-07-30T20:00:49.587Z,4.38
2022-07-30T20:03:25.263Z,6.53
2022-07-30T20:08:42.023Z,5.45
2022-07-30T20:11:21.276Z,5.75
2022-07-30T20:14:02.252Z,5.57
2022-07-30T20:16:35.454Z,5.45
2022-07-30T20:19:04.585Z,5.32
2022-07-30T20:21:55.917Z,5.60
2022-07-30T20:24:21.335Z,5.38
2022-07-30T20:26:49.044Z,5.25
2022-07-30T20:29:19.014Z,6.18
2022-07-30T20:31:50.166Z,5.55
2022-07-30T20:34:20.652Z,6.38
2022-07-30T20:36:52.074Z,4.70
2022-07-30T20:39:21.691Z,5.30
2022-07-30T20:41:49.383Z,5.70
2022-07-30T20:44:23.372Z,6.13
2022-07-30T20:46:52.961Z,4.93
2022-07-30T20:49:24.162Z,5.32
2022-07-30T20:52:02.853Z,5.75
2022-07-30T20:54:31.190Z,5.93
2022-07-30T20:57:00.973Z,5.38
2022-07-30T20:59:29.943Z,5.05
2022-07-30T21:02:00.340Z,4.70
2022-07-30T21:04:28.292Z,5.57
2022-07-30T21:06:59.054Z,4.50
2022-07-30T21:09:28.963Z,5.90
2022-07-30T21:12:16.710Z,5.28
2022-07-30T21:14:45.108Z,5.47
2022-07-30T21:17:18.286Z,5.20
2022-07-30T21:19:48.688Z,5.15
2022-07-30T21:22:16.686Z,6.03
2022-07-30T21:24:44.443Z,5.88
2022-07-30T21:27:13.266Z,5.57
2022-07-30T21:29:41.064Z,6.22
2022-07-30T21:32:09.039Z,5.35
2022-07-30T21:34:42.030Z,5.10
2022-07-30T21:37:10.222Z,6.28
2022-07-30T21:39:41.493Z,4.72
2022-07-30T21:42:09.349Z,5.07
2022-07-30T21:44:37.578Z,5.47
2022-07-30T21:47:05.636Z,6.47
2022-07-30T21:49:41.182Z,5.22
2022-07-30T21:52:12.727Z,4.43
2022-07-30T21:54:48.016Z,4.72
2022-07-30T21:57:23.282Z,5.22
2022-07-30T21:59:55.073Z,5.32
2022-07-30T22:02:23.754Z,4.63
2022-07-30T22:04:53.650Z,5.05
2022-07-30T22:07:22.388Z,4.38
2022-07-30T22:09:50.197Z,5.47
2022-07-30T22:12:18.778Z,4.72
2022-07-30T22:14:49.690Z,5.50
2022-07-30T22:17:23.345Z,5.55
2022-07-30T22:19:54.708Z,5.50
2022-07-30T22:22:27.450Z,5.43
2022-07-30T22:24:58.166Z,5.32
2022-07-30T22:27:26.171Z,6.10
2022-07-30T22:29:55.638Z,6.18
2022-07-30T22:32:23.803Z,5.13
2022-07-30T22:34:53.703Z,5.55
2022-07-30T22:37:21.848Z,5.75
2022-07-30T22:39:50.978Z,6.00
2022-07-30T22:42:19.776Z,5.60
2022-07-30T22:44:48.184Z,6.30
2022-07-30T22:47:21.078Z,5.65
2022-07-30T22:50:08.112Z,5.53
2022-07-30T22:52:38.234Z,5.30
2022-07-30T22:55:09.244Z,5.00
2022-07-30T22:57:38.414Z,4.85
2022-07-30T23:00:12.294Z,5.65
2022-07-30T23:02:40.881Z,5.63
2022-07-30T23:05:10.838Z,5.18
2022-07-30T23:07:40.402Z,4.60
2022-07-30T23:10:12.310Z,5.90
2022-07-30T23:12:17.358Z,6.25
2022-07-30T23:12:57.777Z,5.03
2022-07-30T23:15:25.547Z,5.20
2022-07-30T23:17:53.311Z,4.65
2022-07-30T23:20:23.219Z,5.10
2022-07-30T23:22:53.717Z,5.43
2022-07-30T23:25:22.934Z,5.18
2022-07-30T23:27:52.217Z,5.00
2022-07-30T23:30:19.941Z,5.05
2022-07-30T23:32:47.628Z,5.03
2022-07-30T23:35:16.426Z,5.60
2022-07-30T23:37:48.275Z,4.50
2022-07-30T23:40:16.538Z,5.25
2022-07-30T23:42:44.548Z,4.43
2022-07-30T23:45:12.387Z,4.30
2022-07-30T23:48:00.166Z,5.30
2022-07-30T23:50:28.272Z,4.80
2022-07-30T23:52:57.287Z,4.38
2022-07-30T23:55:25.271Z,4.40
2022-07-30T23:57:53.238Z,4.80
